Nicole Leigh Reinauer — WCZ5696 — position and weather

sailwx.info

Track history (hours):
 
Tides and Currents Weather Stations Pressure Air Temp Water Temp Dewpoint Dewpoint Depression Visibility Wind Speed Wind Dir Waves Ship Positions

Nicole Leigh Reinauer

Owner: H A REINAUER INC, STATEN ISLAND, NY. More information available from US FCC via Universal Licensing System and Coast Guard Vessel Documentation Center.

Last reported at 2017-Jun-25 06:29 UTC. Time now 2017-Jun-25 14:06 UTC.
Position N 40°58' W 073°54'.

Length 167 m; draft 6.7 m.

Type: Tanker. MMSI: 366774330.

Date/timePositionNaut miles runAvg speedWind from/ knotsBaromVisibWave heightAir tempDewpointWater temp
2017-Jun-25 06:29N 40°58' W 073°54'5 9.9
2017-Jun-25 06:00N 40°53' W 073°56'510.1
2017-Jun-25 05:31N 40°49' W 073°58'510.6
2017-Jun-25 05:01N 40°44' W 074°01'2 4.9
2017-Jun-25 04:30N 40°44' W 073°58'510.4
2017-Jun-25 04:00N 40°48' W 073°53'5 9.9
2017-Jun-25 03:30N 40°49' W 073°47'611.5
2017-Jun-25 03:00N 40°54' W 073°42'4312.2
2017-Jun-24 23:31N 41°06' W 072°48'112.3
2017-Jun-24 23:26N 41°06' W 072°47'512.0
2017-Jun-24 23:00N 41°07' W 072°40'611.6
2017-Jun-24 22:29N 41°09' W 072°32'511.4
2017-Jun-24 22:00N 41°10' W 072°25'510.0
2017-Jun-24 21:30N 41°12' W 072°19'4 8.9
2017-Jun-24 21:00N 41°13' W 072°13'48 9.1
2017-Jun-24 15:43N 41°38' W 071°18'411.9
2017-Jun-24 15:24N 41°41' W 071°19'511.6
2017-Jun-24 15:00N 41°45' W 071°22'2 0.1
2017-Jun-24 00:40N 41°47' W 071°22'0 0.2
2017-Jun-24 00:30N 41°47' W 071°22'3 6.4
2017-Jun-24 00:00N 41°44' W 071°22'611.3
2017-Jun-23 23:30N 41°39' W 071°18'46 5.9
2017-Jun-23 15:45N 42°08' W 070°31'311.3
2017-Jun-23 15:27N 42°11' W 070°32'511.4
2017-Jun-23 15:00N 42°15' W 070°37'1111.4
2017-Jun-23 14:00N 42°22' W 070°49'5 9.6
2017-Jun-23 13:30N 42°22' W 070°55'4 8.3
2017-Jun-23 13:00N 42°21' W 071°01'3 5.6
2017-Jun-23 12:30N 42°23' W 071°02'1 0.3
2017-Jun-23 08:01N 42°24' W 071°01'0 0.3
2017-Jun-23 08:00N 42°24' W 071°01'2 0.5
2017-Jun-23 04:19N 42°23' W 071°03'1 4.6
2017-Jun-23 04:00N 42°24' W 071°01'0 0.1
2017-Jun-22 23:13N 42°24' W 071°01'0 0.0
2017-Jun-22 22:58N 42°24' W 071°01'1 1.4
2017-Jun-22 22:30N 42°23' W 071°01'2 3.4
2017-Jun-22 22:00N 42°22' W 071°03'3 6.6
2017-Jun-22 21:30N 42°20' W 070°59'0 0.8
2017-Jun-22 20:59N 42°20' W 070°59'0 0.0
2017-Jun-22 20:29N 42°20' W 070°59'0 0.2
2017-Jun-22 19:59N 42°20' W 070°59'0 0.2
2017-Jun-22 19:29N 42°20' W 070°58'0 0.1
2017-Jun-22 18:56N 42°20' W 070°58'0 0.1
2017-Jun-22 18:29N 42°20' W 070°58'0 0.0
2017-Jun-22 17:59N 42°20' W 070°58'0 0.2
2017-Jun-22 17:29N 42°20' W 070°58'0 0.0
2017-Jun-22 16:59N 42°20' W 070°58'0 0.0
2017-Jun-22 16:29N 42°20' W 070°58'0 0.1
2017-Jun-22 15:59N 42°20' W 070°58'0 0.0
2017-Jun-22 15:29N 42°20' W 070°58'0 0.0
2017-Jun-22 14:59N 42°20' W 070°58'0 0.1
2017-Jun-22 13:59N 42°20' W 070°59'0 0.0
2017-Jun-22 13:29N 42°20' W 070°59'0 0.0
2017-Jun-22 12:59N 42°20' W 070°59'0 0.0
2017-Jun-22 12:29N 42°20' W 070°59'0 0.0
2017-Jun-22 11:59N 42°20' W 070°59'0 0.0
2017-Jun-22 11:29N 42°20' W 070°59'0 0.1
2017-Jun-22 10:59N 42°20' W 070°59'0 0.1
2017-Jun-22 10:29N 42°20' W 070°59'0 0.0
2017-Jun-22 09:59N 42°20' W 070°59'0 0.1
2017-Jun-22 09:29N 42°20' W 070°59'0 0.0
2017-Jun-22 08:59N 42°20' W 070°59'0 0.2
2017-Jun-22 08:29N 42°20' W 070°59'0 0.3
2017-Jun-22 07:59N 42°20' W 070°58'0 0.1
2017-Jun-22 07:29N 42°20' W 070°58'0 0.0
2017-Jun-22 06:59N 42°20' W 070°58'0 0.0
2017-Jun-22 06:29N 42°20' W 070°58'0 0.1
2017-Jun-22 05:59N 42°20' W 070°58'0 0.0
2017-Jun-22 05:29N 42°20' W 070°58'0 0.0
2017-Jun-22 04:59N 42°20' W 070°58'0 0.1
2017-Jun-22 04:29N 42°20' W 070°58'0 0.0
2017-Jun-22 03:59N 42°20' W 070°58'0 0.1
2017-Jun-22 03:29N 42°20' W 070°58'0 0.0
2017-Jun-22 02:59N 42°20' W 070°58'0 0.1
2017-Jun-22 02:29N 42°20' W 070°58'0 0.1
2017-Jun-22 01:59N 42°20' W 070°58'0 0.0
2017-Jun-22 01:29N 42°20' W 070°58'0 0.1
2017-Jun-22 00:59N 42°20' W 070°58'0 0.2
2017-Jun-22 00:29N 42°20' W 070°58'0 0.1
2017-Jun-21 23:59N 42°20' W 070°59'0 0.0
2017-Jun-21 23:29N 42°20' W 070°59'0 0.2
2017-Jun-21 22:59N 42°20' W 070°58'0 0.2
2017-Jun-21 22:29N 42°20' W 070°58'0 0.2
2017-Jun-21 21:59N 42°20' W 070°58'0 0.3
2017-Jun-21 21:29N 42°20' W 070°59'0 0.3
2017-Jun-21 20:59N 42°20' W 070°58'0 0.2
2017-Jun-21 20:29N 42°20' W 070°58'0 0.1
2017-Jun-21 19:59N 42°20' W 070°58'0 0.1
2017-Jun-21 19:29N 42°20' W 070°58'0 0.0
2017-Jun-21 18:59N 42°20' W 070°58'0 0.0
2017-Jun-21 18:29N 42°20' W 070°58'0 0.0
2017-Jun-21 17:59N 42°20' W 070°58'0 0.0
2017-Jun-21 17:29N 42°20' W 070°58'0 0.0
2017-Jun-21 16:59N 42°20' W 070°58'0 0.0
2017-Jun-21 16:29N 42°20' W 070°58'0 0.0
2017-Jun-21 15:59N 42°20' W 070°58'0 0.0
2017-Jun-21 15:29N 42°20' W 070°58'0 0.1
2017-Jun-21 14:59N 42°20' W 070°58'0 0.0
2017-Jun-21 13:59N 42°20' W 070°58'0 0.1
2017-Jun-21 13:29N 42°20' W 070°58'0 0.1
2017-Jun-21 12:59N 42°20' W 070°58'0 0.3
2017-Jun-21 12:30N 42°20' W 070°59'2 3.9
2017-Jun-21 12:00N 42°21' W 070°56'2 3.6
2017-Jun-21 11:31N 42°23' W 070°56'0 0.0
2017-Jun-21 10:59N 42°23' W 070°56'0 0.0
2017-Jun-21 10:29N 42°23' W 070°56'0 0.0
2017-Jun-21 09:59N 42°23' W 070°56'0 0.1
2017-Jun-21 09:30N 42°23' W 070°56'0 0.1
2017-Jun-21 09:00N 42°23' W 070°56'0 0.1
2017-Jun-21 08:30N 42°23' W 070°56'0 0.1
2017-Jun-21 08:00N 42°23' W 070°56'0 0.1
2017-Jun-21 07:30N 42°23' W 070°56'0 0.2
2017-Jun-21 07:00N 42°23' W 070°56'0 0.2
2017-Jun-21 06:30N 42°23' W 070°56'0 0.1
2017-Jun-21 06:00N 42°23' W 070°56'0 0.1
2017-Jun-21 05:30N 42°23' W 070°56'0 0.0
2017-Jun-21 05:00N 42°23' W 070°56'0 0.0
2017-Jun-21 04:30N 42°23' W 070°56'0 0.0
2017-Jun-21 04:00N 42°23' W 070°56'0 0.0
2017-Jun-21 03:30N 42°23' W 070°56'0 0.1
2017-Jun-21 03:00N 42°23' W 070°56'0 0.1
2017-Jun-21 02:30N 42°23' W 070°56'0 0.1
2017-Jun-21 02:00N 42°23' W 070°55'0 0.1
2017-Jun-21 01:31N 42°23' W 070°55'0 0.0
2017-Jun-21 01:01N 42°23' W 070°55'1 1.5
2017-Jun-21 00:30N 42°23' W 070°55'4 8.8
2017-Jun-21 00:00N 42°25' W 070°49'2 3.5
2017-Jun-20 23:30N 42°26' W 070°48'611.7
2017-Jun-20 23:01N 42°30' W 070°42'612.0
2017-Jun-20 22:30N 42°35' W 070°36'611.6
2017-Jun-20 22:00N 42°39' W 070°32'611.7
2017-Jun-20 21:30N 42°45' W 070°29'611.7
2017-Jun-20 21:00N 42°50' W 070°26'611.5
2017-Jun-20 20:30N 42°56' W 070°23'611.1
2017-Jun-20 20:00N 43°01' W 070°21'610.9
2017-Jun-20 19:30N 43°06' W 070°18'8 0.5
2017-Jun-20 04:41N 43°11' W 070°10'2111.1
2017-Jun-20 02:49N 42°51' W 070°15'411.4
2017-Jun-20 02:30N 42°47' W 070°16'611.4
2017-Jun-20 02:01N 42°42' W 070°17'611.3
2017-Jun-20 01:30N 42°36' W 070°18'611.7
2017-Jun-20 01:01N 42°30' W 070°19'611.7
2017-Jun-20 00:31N 42°25' W 070°21'611.9
2017-Jun-20 00:00N 42°19' W 070°22'611.6
2017-Jun-19 23:28N 42°13' W 070°23'98 5.0
2017-Jun-19 03:43N 41°14' W 072°09'313.6
2017-Jun-19 03:29N 41°13' W 072°13'714.2
2017-Jun-19 03:00N 41°11' W 072°21'713.8
2017-Jun-19 02:31N 41°09' W 072°30'713.1
2017-Jun-19 02:00N 41°07' W 072°38'612.7
2017-Jun-19 01:30N 41°06' W 072°47'4611.7
2017-Jun-18 21:35N 40°52' W 073°45'111.7
2017-Jun-18 21:28N 40°51' W 073°46'4 9.4
2017-Jun-18 21:00N 40°48' W 073°50'510.1
2017-Jun-18 20:30N 40°47' W 073°56'5 9.9
2017-Jun-18 20:00N 40°42' W 073°60'3 5.2
2017-Jun-18 19:31N 40°45' W 074°01'4 7.9
2017-Jun-18 19:00N 40°48' W 073°59'4 8.0
2017-Jun-18 18:30N 40°52' W 073°56'4 8.0
2017-Jun-18 18:00N 40°56' W 073°55'  
2017-Jun-15 16:38N 40°59' W 073°54'212.0
2017-Jun-15 16:30N 40°57' W 073°54'611.8
2017-Jun-15 16:00N 40°52' W 073°57'611.7
2017-Jun-15 15:30N 40°47' W 074°00'510.1
2017-Jun-15 15:00N 40°42' W 074°02'4 8.7
2017-Jun-15 14:30N 40°37' W 074°03'1111.0
2017-Jun-15 13:29N 40°29' W 073°53'611.3
2017-Jun-15 12:59N 40°29' W 073°46'611.6
2017-Jun-15 12:30N 40°29' W 073°39'611.6
2017-Jun-15 12:00N 40°30' W 073°31'611.6
2017-Jun-15 11:29N 40°32' W 073°24'611.5
2017-Jun-15 11:00N 40°33' W 073°17'611.5
2017-Jun-15 10:30N 40°35' W 073°09'611.4
2017-Jun-15 10:00N 40°36' W 073°02'611.4
2017-Jun-15 09:30N 40°38' W 072°55'611.6
2017-Jun-15 09:00N 40°40' W 072°47'611.6
2017-Jun-15 08:30N 40°42' W 072°40'  
Track history (hours):
 
Tides and Currents Weather Stations Pressure Air Temp Water Temp Dewpoint Dewpoint Depression Visibility Wind Speed Wind Dir Waves Ship Positions

Nicole Leigh Reinauer

Owner: H A REINAUER INC, STATEN ISLAND, NY. More information available from US FCC via Universal Licensing System and Coast Guard Vessel Documentation Center.

Last reported at 2017-Jun-25 06:29 UTC. Time now 2017-Jun-25 14:06 UTC.
Position N 40°58' W 073°54'.

Length 167 m; draft 6.7 m.

Type: Tanker. MMSI: 366774330.

Date/timePositionNaut miles runAvg speedWind from/ knotsBaromVisibWave heightAir tempDewpointWater temp
2017-Jun-25 06:29N 40°58' W 073°54'5 9.9
2017-Jun-25 06:00N 40°53' W 073°56'510.1
2017-Jun-25 05:31N 40°49' W 073°58'510.6
2017-Jun-25 05:01N 40°44' W 074°01'2 4.9
2017-Jun-25 04:30N 40°44' W 073°58'510.4
2017-Jun-25 04:00N 40°48' W 073°53'5 9.9
2017-Jun-25 03:30N 40°49' W 073°47'611.5
2017-Jun-25 03:00N 40°54' W 073°42'4312.2
2017-Jun-24 23:31N 41°06' W 072°48'112.3
2017-Jun-24 23:26N 41°06' W 072°47'512.0
2017-Jun-24 23:00N 41°07' W 072°40'611.6
2017-Jun-24 22:29N 41°09' W 072°32'511.4
2017-Jun-24 22:00N 41°10' W 072°25'510.0
2017-Jun-24 21:30N 41°12' W 072°19'4 8.9
2017-Jun-24 21:00N 41°13' W 072°13'48 9.1
2017-Jun-24 15:43N 41°38' W 071°18'411.9
2017-Jun-24 15:24N 41°41' W 071°19'511.6
2017-Jun-24 15:00N 41°45' W 071°22'2 0.1
2017-Jun-24 00:40N 41°47' W 071°22'0 0.2
2017-Jun-24 00:30N 41°47' W 071°22'3 6.4
2017-Jun-24 00:00N 41°44' W 071°22'611.3
2017-Jun-23 23:30N 41°39' W 071°18'46 5.9
2017-Jun-23 15:45N 42°08' W 070°31'311.3
2017-Jun-23 15:27N 42°11' W 070°32'511.4
2017-Jun-23 15:00N 42°15' W 070°37'1111.4
2017-Jun-23 14:00N 42°22' W 070°49'5 9.6
2017-Jun-23 13:30N 42°22' W 070°55'4 8.3
2017-Jun-23 13:00N 42°21' W 071°01'3 5.6
2017-Jun-23 12:30N 42°23' W 071°02'1 0.3
2017-Jun-23 08:01N 42°24' W 071°01'0 0.3
2017-Jun-23 08:00N 42°24' W 071°01'2 0.5
2017-Jun-23 04:19N 42°23' W 071°03'1 4.6
2017-Jun-23 04:00N 42°24' W 071°01'0 0.1
2017-Jun-22 23:13N 42°24' W 071°01'0 0.0
2017-Jun-22 22:58N 42°24' W 071°01'1 1.4
2017-Jun-22 22:30N 42°23' W 071°01'2 3.4
2017-Jun-22 22:00N 42°22' W 071°03'3 6.6
2017-Jun-22 21:30N 42°20' W 070°59'0 0.8
2017-Jun-22 20:59N 42°20' W 070°59'0 0.0
2017-Jun-22 20:29N 42°20' W 070°59'0 0.2
2017-Jun-22 19:59N 42°20' W 070°59'0 0.2
2017-Jun-22 19:29N 42°20' W 070°58'0 0.1
2017-Jun-22 18:56N 42°20' W 070°58'0 0.1
2017-Jun-22 18:29N 42°20' W 070°58'0 0.0
2017-Jun-22 17:59N 42°20' W 070°58'0 0.2
2017-Jun-22 17:29N 42°20' W 070°58'0 0.0
2017-Jun-22 16:59N 42°20' W 070°58'0 0.0
2017-Jun-22 16:29N 42°20' W 070°58'0 0.1
2017-Jun-22 15:59N 42°20' W 070°58'0 0.0
2017-Jun-22 15:29N 42°20' W 070°58'0 0.0
2017-Jun-22 14:59N 42°20' W 070°58'0 0.1
2017-Jun-22 13:59N 42°20' W 070°59'0 0.0
2017-Jun-22 13:29N 42°20' W 070°59'0 0.0
2017-Jun-22 12:59N 42°20' W 070°59'0 0.0
2017-Jun-22 12:29N 42°20' W 070°59'0 0.0
2017-Jun-22 11:59N 42°20' W 070°59'0 0.0
2017-Jun-22 11:29N 42°20' W 070°59'0 0.1
2017-Jun-22 10:59N 42°20' W 070°59'0 0.1
2017-Jun-22 10:29N 42°20' W 070°59'0 0.0
2017-Jun-22 09:59N 42°20' W 070°59'0 0.1
2017-Jun-22 09:29N 42°20' W 070°59'0 0.0
2017-Jun-22 08:59N 42°20' W 070°59'0 0.2
2017-Jun-22 08:29N 42°20' W 070°59'0 0.3
2017-Jun-22 07:59N 42°20' W 070°58'0 0.1
2017-Jun-22 07:29N 42°20' W 070°58'0 0.0
2017-Jun-22 06:59N 42°20' W 070°58'0 0.0
2017-Jun-22 06:29N 42°20' W 070°58'0 0.1
2017-Jun-22 05:59N 42°20' W 070°58'0 0.0
2017-Jun-22 05:29N 42°20' W 070°58'0 0.0
2017-Jun-22 04:59N 42°20' W 070°58'0 0.1
2017-Jun-22 04:29N 42°20' W 070°58'0 0.0
2017-Jun-22 03:59N 42°20' W 070°58'0 0.1
2017-Jun-22 03:29N 42°20' W 070°58'0 0.0
2017-Jun-22 02:59N 42°20' W 070°58'0 0.1
2017-Jun-22 02:29N 42°20' W 070°58'0 0.1
2017-Jun-22 01:59N 42°20' W 070°58'0 0.0
2017-Jun-22 01:29N 42°20' W 070°58'0 0.1
2017-Jun-22 00:59N 42°20' W 070°58'0 0.2
2017-Jun-22 00:29N 42°20' W 070°58'0 0.1
2017-Jun-21 23:59N 42°20' W 070°59'0 0.0
2017-Jun-21 23:29N 42°20' W 070°59'0 0.2
2017-Jun-21 22:59N 42°20' W 070°58'0 0.2
2017-Jun-21 22:29N 42°20' W 070°58'0 0.2
2017-Jun-21 21:59N 42°20' W 070°58'0 0.3
2017-Jun-21 21:29N 42°20' W 070°59'0 0.3
2017-Jun-21 20:59N 42°20' W 070°58'0 0.2
2017-Jun-21 20:29N 42°20' W 070°58'0 0.1
2017-Jun-21 19:59N 42°20' W 070°58'0 0.1
2017-Jun-21 19:29N 42°20' W 070°58'0 0.0
2017-Jun-21 18:59N 42°20' W 070°58'0 0.0
2017-Jun-21 18:29N 42°20' W 070°58'0 0.0
2017-Jun-21 17:59N 42°20' W 070°58'0 0.0
2017-Jun-21 17:29N 42°20' W 070°58'0 0.0
2017-Jun-21 16:59N 42°20' W 070°58'0 0.0
2017-Jun-21 16:29N 42°20' W 070°58'0 0.0
2017-Jun-21 15:59N 42°20' W 070°58'0 0.0
2017-Jun-21 15:29N 42°20' W 070°58'0 0.1
2017-Jun-21 14:59N 42°20' W 070°58'0 0.0
2017-Jun-21 13:59N 42°20' W 070°58'0 0.1
2017-Jun-21 13:29N 42°20' W 070°58'0 0.1
2017-Jun-21 12:59N 42°20' W 070°58'0 0.3
2017-Jun-21 12:30N 42°20' W 070°59'2 3.9
2017-Jun-21 12:00N 42°21' W 070°56'2 3.6
2017-Jun-21 11:31N 42°23' W 070°56'0 0.0
2017-Jun-21 10:59N 42°23' W 070°56'0 0.0
2017-Jun-21 10:29N 42°23' W 070°56'0 0.0
2017-Jun-21 09:59N 42°23' W 070°56'0 0.1
2017-Jun-21 09:30N 42°23' W 070°56'0 0.1
2017-Jun-21 09:00N 42°23' W 070°56'0 0.1
2017-Jun-21 08:30N 42°23' W 070°56'0 0.1
2017-Jun-21 08:00N 42°23' W 070°56'0 0.1
2017-Jun-21 07:30N 42°23' W 070°56'0 0.2
2017-Jun-21 07:00N 42°23' W 070°56'0 0.2
2017-Jun-21 06:30N 42°23' W 070°56'0 0.1
2017-Jun-21 06:00N 42°23' W 070°56'0 0.1
2017-Jun-21 05:30N 42°23' W 070°56'0 0.0
2017-Jun-21 05:00N 42°23' W 070°56'0 0.0
2017-Jun-21 04:30N 42°23' W 070°56'0 0.0
2017-Jun-21 04:00N 42°23' W 070°56'0 0.0
2017-Jun-21 03:30N 42°23' W 070°56'0 0.1
2017-Jun-21 03:00N 42°23' W 070°56'0 0.1
2017-Jun-21 02:30N 42°23' W 070°56'0 0.1
2017-Jun-21 02:00N 42°23' W 070°55'0 0.1
2017-Jun-21 01:31N 42°23' W 070°55'0 0.0
2017-Jun-21 01:01N 42°23' W 070°55'1 1.5
2017-Jun-21 00:30N 42°23' W 070°55'4 8.8
2017-Jun-21 00:00N 42°25' W 070°49'2 3.5
2017-Jun-20 23:30N 42°26' W 070°48'611.7
2017-Jun-20 23:01N 42°30' W 070°42'612.0
2017-Jun-20 22:30N 42°35' W 070°36'611.6
2017-Jun-20 22:00N 42°39' W 070°32'611.7
2017-Jun-20 21:30N 42°45' W 070°29'611.7
2017-Jun-20 21:00N 42°50' W 070°26'611.5
2017-Jun-20 20:30N 42°56' W 070°23'611.1
2017-Jun-20 20:00N 43°01' W 070°21'610.9
2017-Jun-20 19:30N 43°06' W 070°18'8 0.5
2017-Jun-20 04:41N 43°11' W 070°10'2111.1
2017-Jun-20 02:49N 42°51' W 070°15'411.4
2017-Jun-20 02:30N 42°47' W 070°16'611.4
2017-Jun-20 02:01N 42°42' W 070°17'611.3
2017-Jun-20 01:30N 42°36' W 070°18'611.7
2017-Jun-20 01:01N 42°30' W 070°19'611.7
2017-Jun-20 00:31N 42°25' W 070°21'611.9
2017-Jun-20 00:00N 42°19' W 070°22'611.6
2017-Jun-19 23:28N 42°13' W 070°23'98 5.0
2017-Jun-19 03:43N 41°14' W 072°09'313.6
2017-Jun-19 03:29N 41°13' W 072°13'714.2
2017-Jun-19 03:00N 41°11' W 072°21'713.8
2017-Jun-19 02:31N 41°09' W 072°30'713.1
2017-Jun-19 02:00N 41°07' W 072°38'612.7
2017-Jun-19 01:30N 41°06' W 072°47'4611.7
2017-Jun-18 21:35N 40°52' W 073°45'111.7
2017-Jun-18 21:28N 40°51' W 073°46'4 9.4
2017-Jun-18 21:00N 40°48' W 073°50'510.1
2017-Jun-18 20:30N 40°47' W 073°56'5 9.9
2017-Jun-18 20:00N 40°42' W 073°60'3 5.2
2017-Jun-18 19:31N 40°45' W 074°01'4 7.9
2017-Jun-18 19:00N 40°48' W 073°59'4 8.0
2017-Jun-18 18:30N 40°52' W 073°56'4 8.0
2017-Jun-18 18:00N 40°56' W 073°55'  
2017-Jun-15 16:38N 40°59' W 073°54'212.0
2017-Jun-15 16:30N 40°57' W 073°54'611.8
2017-Jun-15 16:00N 40°52' W 073°57'611.7
2017-Jun-15 15:30N 40°47' W 074°00'510.1
2017-Jun-15 15:00N 40°42' W 074°02'4 8.7
2017-Jun-15 14:30N 40°37' W 074°03'1111.0
2017-Jun-15 13:29N 40°29' W 073°53'611.3
2017-Jun-15 12:59N 40°29' W 073°46'611.6
2017-Jun-15 12:30N 40°29' W 073°39'611.6
2017-Jun-15 12:00N 40°30' W 073°31'611.6
2017-Jun-15 11:29N 40°32' W 073°24'611.5
2017-Jun-15 11:00N 40°33' W 073°17'611.5
2017-Jun-15 10:30N 40°35' W 073°09'611.4
2017-Jun-15 10:00N 40°36' W 073°02'611.4
2017-Jun-15 09:30N 40°38' W 072°55'611.6
2017-Jun-15 09:00N 40°40' W 072°47'611.6
2017-Jun-15 08:30N 40°42' W 072°40'  

Dump ship's entire track history